Time;durP1;ratioP1;P1;durP2;ratioP2;P2;SDS_P1;SDS_P2;PMS_P1;PMS_P2;Temp;Humidity;BMP_temperature;BMP_pressure;BME280_temperature;BME280_humidity;BME280_pressure;Samples;Min_cycle;Max_cycle;Signal;HPM_P1;HPM_P2
2023/06/14 00:01:38;;;;;;;11.43;7.55;;;21.60;85.80;;;;;;5026239;28;20515;-70
2023/06/14 00:04:08;;;;;;;8.25;7.07;;;21.50;86.00;;;;;;5027211;28;20029;-69
2023/06/14 00:06:34;;;;;;;13.95;9.43;;;21.50;86.20;;;;;;5018350;28;20072;-69
2023/06/14 00:09:01;;;;;;;9.88;8.50;;;21.40;86.00;;;;;;5026305;28;20029;-70
2023/06/14 00:11:26;;;;;;;11.00;8.57;;;21.40;86.00;;;;;;5026246;28;20022;-69
2023/06/14 00:13:52;;;;;;;10.60;8.25;;;21.40;86.40;;;;;;5020986;28;20032;-69
2023/06/14 00:16:19;;;;;;;10.48;8.23;;;21.40;86.30;;;;;;5027338;28;20022;-70
2023/06/14 00:18:45;;;;;;;12.32;8.57;;;21.30;87.30;;;;;;5023777;28;20076;-69
2023/06/14 00:21:12;;;;;;;9.50;8.25;;;21.20;87.00;;;;;;5020335;28;20073;-69
2023/06/14 00:23:37;;;;;;;9.95;8.60;;;21.20;86.60;;;;;;5021646;28;20026;-70
2023/06/14 00:26:03;;;;;;;10.43;8.57;;;21.10;86.90;;;;;;5017366;28;20160;-71
2023/06/14 00:28:29;;;;;;;9.93;8.93;;;21.10;87.00;;;;;;5009203;28;20060;-71
2023/06/14 00:30:55;;;;;;;9.38;7.55;;;21.10;87.10;;;;;;5027980;28;20404;-70
2023/06/14 00:33:21;;;;;;;11.65;8.77;;;21.10;87.10;;;;;;5022178;28;20098;-71
2023/06/14 00:35:47;;;;;;;11.50;8.90;;;21.00;87.10;;;;;;5022434;28;20470;-71
2023/06/14 00:38:12;;;;;;;10.48;7.70;;;21.00;87.30;;;;;;5022644;28;20068;-71
2023/06/14 00:40:38;;;;;;;10.05;8.80;;;21.00;87.40;;;;;;5007419;28;20016;-71
2023/06/14 00:43:04;;;;;;;12.00;8.60;;;20.90;87.20;;;;;;5024886;28;20079;-71
2023/06/14 00:45:31;;;;;;;9.05;8.15;;;20.90;87.40;;;;;;5019498;28;20036;-71
2023/06/14 00:47:58;;;;;;;14.13;8.70;;;20.90;87.50;;;;;;5019005;28;20124;-71
2023/06/14 00:50:24;;;;;;;11.85;8.77;;;20.80;87.50;;;;;;5022722;28;20096;-71
2023/06/14 00:52:50;;;;;;;10.48;9.27;;;20.80;87.50;;;;;;5025839;28;20852;-71
2023/06/14 00:55:16;;;;;;;13.80;9.52;;;20.80;87.90;;;;;;5015674;28;20056;-71
2023/06/14 00:57:42;;;;;;;12.15;9.52;;;20.70;87.80;;;;;;5016865;28;20045;-71
2023/06/14 01:00:08;;;;;;;11.75;8.95;;;20.70;88.20;;;;;;5023145;28;20029;-71
2023/06/14 01:02:37;;;;;;;12.50;8.73;;;20.70;88.30;;;;;;5009109;28;20026;-71
2023/06/14 01:05:06;;;;;;;11.52;8.27;;;20.60;88.70;;;;;;5027376;28;20029;-71
2023/06/14 01:07:53;;;;;;;9.57;8.38;;;20.60;88.70;;;;;;5017285;28;20025;-71
2023/06/14 01:10:35;;;;;;;9.30;8.43;;;20.50;89.50;;;;;;5017602;28;20474;-72
2023/06/14 01:13:35;;;;;;;12.13;9.15;;;20.50;88.80;;;;;;5028602;28;20362;-71
2023/06/14 01:16:01;;;;;;;14.73;8.88;;;20.50;88.80;;;;;;5017248;28;20033;-71
2023/06/14 01:18:29;;;;;;;9.88;8.02;;;20.50;88.90;;;;;;5025329;28;20479;-71
2023/06/14 01:20:55;;;;;;;12.82;9.27;;;20.40;89.20;;;;;;5021367;28;20028;-71
2023/06/14 01:23:23;;;;;;;11.02;7.70;;;20.40;89.80;;;;;;5026519;28;20021;-71
2023/06/14 01:25:53;;;;;;;12.68;9.90;;;20.40;89.80;;;;;;5025482;28;20083;-71
2023/06/14 01:28:20;;;;;;;9.90;8.90;;;20.30;89.60;;;;;;5019639;28;20025;-71
2023/06/14 01:30:49;;;;;;;10.10;8.88;;;20.30;89.80;;;;;;5030051;28;20121;-70
2023/06/14 01:33:17;;;;;;;10.88;8.93;;;20.30;90.00;;;;;;5029130;28;20381;-71
2023/06/14 01:35:50;;;;;;;9.90;8.75;;;20.30;90.00;;;;;;5027243;28;20021;-71
2023/06/14 01:38:19;;;;;;;10.98;8.20;;;20.30;90.20;;;;;;5026846;28;20038;-71
2023/06/14 01:40:46;;;;;;;9.23;8.27;;;20.20;90.00;;;;;;5021643;28;20081;-71
2023/06/14 01:43:15;;;;;;;10.00;7.63;;;20.20;90.40;;;;;;5024742;28;20017;-71
2023/06/14 01:45:42;;;;;;;10.00;8.93;;;20.10;90.50;;;;;;5010964;28;20049;-71
2023/06/14 01:48:09;;;;;;;10.02;8.82;;;20.10;90.20;;;;;;5021672;28;20025;-71
2023/06/14 01:50:35;;;;;;;11.50;9.02;;;20.10;90.40;;;;;;5018659;28;20049;-71
2023/06/14 01:53:01;;;;;;;14.73;9.48;;;20.10;90.20;;;;;;5023238;28;20052;-72
2023/06/14 01:55:27;;;;;;;13.93;9.43;;;20.10;90.50;;;;;;5026540;28;20036;-71
2023/06/14 01:57:53;;;;;;;12.00;10.13;;;20.10;90.30;;;;;;5026795;28;20059;-71
2023/06/14 02:00:19;;;;;;;11.77;8.80;;;20.00;90.50;;;;;;5022210;28;20022;-71
2023/06/14 02:02:45;;;;;;;12.07;9.00;;;20.00;90.20;;;;;;5022306;28;20025;-71
2023/06/14 02:05:11;;;;;;;10.25;8.85;;;20.00;90.40;;;;;;5022860;28;20129;-70
2023/06/14 02:07:37;;;;;;;13.70;8.98;;;19.90;90.40;;;;;;5013158;28;20025;-71
2023/06/14 02:10:04;;;;;;;12.05;9.90;;;19.90;90.20;;;;;;5027451;28;20441;-71
2023/06/14 02:12:30;;;;;;;11.18;9.05;;;19.90;90.30;;;;;;5026394;28;21465;-71
2023/06/14 02:14:56;;;;;;;14.23;9.00;;;19.90;90.50;;;;;;5027498;28;20031;-71
2023/06/14 02:17:22;;;;;;;13.65;8.13;;;19.80;90.40;;;;;;5026241;28;21609;-71
2023/06/14 02:19:48;;;;;;;11.30;8.88;;;19.80;90.40;;;;;;5028836;28;20053;-71
2023/06/14 02:22:15;;;;;;;11.65;8.38;;;19.80;90.40;;;;;;5025705;28;20017;-71
2023/06/14 02:24:41;;;;;;;10.95;8.52;;;19.80;90.30;;;;;;5025137;28;20512;-71
2023/06/14 02:27:10;;;;;;;10.20;8.15;;;19.80;90.40;;;;;;5032821;28;20006;-71
2023/06/14 02:29:36;;;;;;;11.20;8.38;;;19.70;90.40;;;;;;5029989;28;20026;-72
2023/06/14 02:32:02;;;;;;;10.63;9.45;;;19.70;90.80;;;;;;5026824;28;20022;-71
2023/06/14 02:34:28;;;;;;;12.80;9.07;;;19.70;90.40;;;;;;5029708;28;20512;-71
2023/06/14 02:36:55;;;;;;;12.48;9.20;;;19.70;90.50;;;;;;5022095;28;20024;-71
2023/06/14 02:39:23;;;;;;;15.77;9.15;;;19.70;90.50;;;;;;5026800;28;20101;-71
2023/06/14 02:41:50;;;;;;;11.25;8.93;;;19.60;90.60;;;;;;5029652;28;20075;-71
2023/06/14 02:44:17;;;;;;;10.38;8.57;;;19.60;90.50;;;;;;5021146;28;20025;-71
2023/06/14 02:46:43;;;;;;;11.75;9.10;;;19.60;90.60;;;;;;5023671;28;20037;-71
2023/06/14 02:49:10;;;;;;;12.45;8.18;;;19.60;90.70;;;;;;5031459;28;20021;-71
2023/06/14 02:51:36;;;;;;;10.23;8.55;;;19.50;90.60;;;;;;5023971;28;20029;-71
2023/06/14 02:54:01;;;;;;;10.77;8.23;;;19.50;90.60;;;;;;5021516;28;20063;-71
2023/06/14 02:56:27;;;;;;;11.23;8.52;;;19.50;90.60;;;;;;5011981;28;20021;-71
2023/06/14 02:58:53;;;;;;;15.98;9.73;;;19.50;90.70;;;;;;5023630;28;20102;-70
2023/06/14 03:01:20;;;;;;;12.98;7.88;;;19.40;90.70;;;;;;5026296;28;20466;-71
2023/06/14 03:03:46;;;;;;;12.15;9.00;;;19.40;90.60;;;;;;5029133;28;20034;-70
2023/06/14 03:06:13;;;;;;;10.35;8.45;;;19.40;90.80;;;;;;5010572;28;20167;-71
2023/06/14 03:08:41;;;;;;;11.77;8.57;;;19.30;90.70;;;;;;5022559;28;20091;-71
2023/06/14 03:11:08;;;;;;;10.30;8.52;;;19.30;90.70;;;;;;5027244;28;20022;-71
2023/06/14 03:13:37;;;;;;;12.65;8.85;;;19.30;90.70;;;;;;5030077;28;20037;-71
2023/06/14 03:16:03;;;;;;;15.15;8.45;;;19.30;90.90;;;;;;5025599;28;20097;-72
2023/06/14 03:18:35;;;;;;;10.30;8.40;;;19.20;90.80;;;;;;5025570;28;20104;-70
2023/06/14 03:21:01;;;;;;;11.32;8.55;;;19.20;91.00;;;;;;5026253;28;20045;-71
2023/06/14 03:23:27;;;;;;;13.07;8.38;;;19.10;90.90;;;;;;5026504;28;20030;-71
2023/06/14 03:25:53;;;;;;;12.93;8.57;;;19.10;91.00;;;;;;5027368;28;20033;-71
2023/06/14 03:28:18;;;;;;;13.35;8.82;;;19.10;91.10;;;;;;5024658;28;20033;-71
2023/06/14 03:30:44;;;;;;;13.60;8.57;;;19.00;91.20;;;;;;5031062;28;20385;-70
2023/06/14 03:33:10;;;;;;;13.13;8.93;;;19.00;91.20;;;;;;5022378;28;20036;-71
2023/06/14 03:35:36;;;;;;;11.35;8.73;;;19.00;91.40;;;;;;5026505;28;20037;-70
2023/06/14 03:38:03;;;;;;;9.85;8.52;;;19.00;91.20;;;;;;5022411;28;20471;-71
2023/06/14 03:40:29;;;;;;;15.20;8.82;;;19.00;90.90;;;;;;5026422;28;20025;-71
2023/06/14 03:42:55;;;;;;;10.52;7.63;;;19.00;91.30;;;;;;5029568;28;20405;-70
2023/06/14 03:45:21;;;;;;;10.27;8.30;;;18.90;91.30;;;;;;5027445;28;20552;-71
2023/06/14 03:47:47;;;;;;;11.07;7.63;;;18.90;91.70;;;;;;5031222;28;20030;-71
2023/06/14 03:50:13;;;;;;;11.93;8.23;;;18.90;91.40;;;;;;5030752;28;20017;-71
2023/06/14 03:52:39;;;;;;;14.45;8.45;;;18.90;91.00;;;;;;5028082;28;20501;-70
2023/06/14 03:55:05;;;;;;;10.75;8.20;;;18.80;91.50;;;;;;5026111;28;20025;-70
2023/06/14 03:57:31;;;;;;;11.35;8.40;;;18.80;91.10;;;;;;5026825;28;20021;-71
2023/06/14 03:59:57;;;;;;;10.20;9.15;;;18.80;91.20;;;;;;5022855;28;20032;-71
2023/06/14 04:02:23;;;;;;;12.23;8.45;;;18.80;91.70;;;;;;5024292;28;20022;-71
2023/06/14 04:04:49;;;;;;;12.18;8.63;;;18.80;91.60;;;;;;5029012;28;20041;-71
2023/06/14 04:07:15;;;;;;;9.75;8.52;;;18.80;91.50;;;;;;5013714;28;20021;-71
2023/06/14 04:09:41;;;;;;;9.73;8.43;;;18.80;91.80;;;;;;5026856;28;20041;-70
2023/06/14 04:12:11;;;;;;;11.82;8.80;;;18.70;92.00;;;;;;5021058;28;20028;-71
2023/06/14 04:14:37;;;;;;;15.10;9.05;;;18.70;91.70;;;;;;5003532;28;20025;-71
2023/06/14 04:17:03;;;;;;;10.35;8.57;;;18.70;92.30;;;;;;5014408;28;20018;-71
2023/06/14 04:19:29;;;;;;;11.50;9.18;;;18.70;92.00;;;;;;5021912;28;20465;-71
2023/06/14 04:21:55;;;;;;;11.07;9.48;;;18.70;92.30;;;;;;5025623;28;20029;-71
2023/06/14 04:24:21;;;;;;;14.00;9.20;;;18.70;92.70;;;;;;5026538;28;20555;-71
2023/06/14 04:26:51;;;;;;;11.85;8.82;;;18.70;92.80;;;;;;5029501;28;20389;-70
2023/06/14 04:29:19;;;;;;;12.90;8.00;;;18.70;92.80;;;;;;5027893;28;20025;-70
2023/06/14 04:31:45;;;;;;;9.70;8.80;;;18.70;92.60;;;;;;5011366;28;20026;-71
2023/06/14 04:34:16;;;;;;;13.95;8.75;;;18.70;93.00;;;;;;5031135;28;20029;-70
2023/06/14 04:36:48;;;;;;;10.13;9.13;;;18.60;92.70;;;;;;5028103;28;20022;-71
2023/06/14 04:39:18;;;;;;;12.65;9.35;;;18.50;94.40;;;;;;5027306;28;20024;-71
2023/06/14 04:41:44;;;;;;;13.18;8.75;;;18.60;94.10;;;;;;5030836;28;20029;-71
2023/06/14 04:44:10;;;;;;;10.75;8.70;;;18.60;93.50;;;;;;5026475;28;20027;-71
2023/06/14 04:46:56;;;;;;;13.90;9.40;;;18.60;94.20;;;;;;5023222;28;20100;-71
2023/06/14 04:49:23;;;;;;;10.02;8.35;;;18.60;95.00;;;;;;5005937;28;20045;-71
2023/06/14 04:51:57;;;;;;;10.82;8.50;;;18.60;94.80;;;;;;5024638;28;20375;-71
2023/06/14 04:54:24;;;;;;;14.10;8.75;;;18.60;94.60;;;;;;5026715;28;20026;-71
2023/06/14 04:56:50;;;;;;;11.38;8.50;;;18.60;94.00;;;;;;5028344;28;20509;-70
2023/06/14 04:59:17;;;;;;;10.50;8.75;;;18.70;95.00;;;;;;5005880;28;20037;-71
2023/06/14 05:01:48;;;;;;;12.23;8.43;;;18.70;95.10;;;;;;5020898;28;20026;-71
2023/06/14 05:04:16;;;;;;;11.63;9.68;;;18.70;95.30;;;;;;5026470;28;20033;-71
2023/06/14 05:06:47;;;;;;;12.90;8.77;;;18.70;95.90;;;;;;5026677;28;20045;-71
2023/06/14 05:09:15;;;;;;;14.43;9.07;;;18.70;95.60;;;;;;5025661;28;20033;-71
2023/06/14 05:11:43;;;;;;;12.73;9.00;;;18.80;95.40;;;;;;5030095;28;20044;-71
2023/06/14 05:14:12;;;;;;;13.38;8.55;;;18.80;96.80;;;;;;5026202;28;20014;-71
2023/06/14 05:16:39;;;;;;;9.43;8.40;;;18.80;95.80;;;;;;5029627;28;20028;-71
2023/06/14 05:19:04;;;;;;;9.40;8.38;;;18.80;95.80;;;;;;5023720;28;20709;-69
2023/06/14 05:21:31;;;;;;;12.43;8.20;;;18.90;96.80;;;;;;5021370;28;20026;-70
2023/06/14 05:23:57;;;;;;;12.63;8.63;;;18.90;96.70;;;;;;5008097;28;20024;-71
2023/06/14 05:26:29;;;;;;;10.18;7.97;;;18.90;98.00;;;;;;5009131;28;20029;-71
2023/06/14 05:29:00;;;;;;;12.65;8.90;;;18.90;97.00;;;;;;5029959;28;20045;-70
2023/06/14 05:31:26;;;;;;;8.68;7.78;;;18.90;98.40;;;;;;5024174;28;20115;-71
2023/06/14 05:33:53;;;;;;;11.27;8.18;;;19.00;97.30;;;;;;5026710;28;20041;-71
2023/06/14 05:36:21;;;;;;;10.23;7.97;;;19.00;98.10;;;;;;5022940;28;20033;-71
2023/06/14 05:38:47;;;;;;;9.50;7.75;;;19.00;97.50;;;;;;5024682;28;20014;-71
2023/06/14 05:41:13;;;;;;;14.70;8.23;;;18.80;99.90;;;;;;5029752;28;20040;-70
2023/06/14 05:43:39;;;;;;;10.32;7.82;;;18.90;99.10;;;;;;5029185;28;20018;-71
2023/06/14 05:46:05;;;;;;;12.77;7.90;;;18.90;98.10;;;;;;5023234;28;20117;-70
2023/06/14 05:48:31;;;;;;;13.52;8.60;;;18.90;97.70;;;;;;5017392;28;20052;-70
2023/06/14 05:50:57;;;;;;;8.20;7.45;;;18.90;98.40;;;;;;5030811;28;20059;-70
2023/06/14 05:53:23;;;;;;;9.98;7.72;;;19.00;99.40;;;;;;5020919;28;20032;-71
2023/06/14 05:55:51;;;;;;;12.13;7.43;;;19.00;99.40;;;;;;5022741;28;20105;-71
2023/06/14 05:58:17;;;;;;;8.05;7.22;;;19.00;98.30;;;;;;5023261;28;20068;-69
2023/06/14 06:00:43;;;;;;;11.25;7.38;;;19.10;98.10;;;;;;5023526;28;20030;-69
2023/06/14 06:03:09;;;;;;;13.73;8.65;;;19.10;98.40;;;;;;5025105;28;20018;-69
2023/06/14 06:05:34;;;;;;;13.77;7.90;;;19.10;98.10;;;;;;5027096;28;20034;-69
2023/06/14 06:08:00;;;;;;;8.65;7.07;;;19.10;97.60;;;;;;5021934;28;20014;-70
2023/06/14 06:10:26;;;;;;;9.55;7.05;;;19.20;98.00;;;;;;5008653;28;20047;-70
2023/06/14 06:12:52;;;;;;;7.38;6.50;;;19.20;98.10;;;;;;5025370;28;20503;-70
2023/06/14 06:15:18;;;;;;;14.05;6.95;;;19.20;98.30;;;;;;5023723;28;20109;-70
2023/06/14 06:17:44;;;;;;;12.35;6.60;;;19.30;98.20;;;;;;5021964;28;20109;-70
2023/06/14 06:20:11;;;;;;;10.93;7.13;;;19.30;98.90;;;;;;5027021;28;20448;-70
2023/06/14 06:22:38;;;;;;;10.35;7.75;;;19.50;98.80;;;;;;5030750;28;20067;-70
2023/06/14 06:25:04;;;;;;;11.18;7.10;;;19.50;98.30;;;;;;5024972;28;20436;-70
2023/06/14 06:27:30;;;;;;;14.18;7.00;;;19.50;97.60;;;;;;5019771;28;20028;-70
2023/06/14 06:29:56;;;;;;;11.60;7.45;;;19.60;98.60;;;;;;5024290;28;20067;-70
2023/06/14 06:32:21;;;;;;;9.77;6.40;;;19.60;97.70;;;;;;5021401;28;20390;-70
2023/06/14 06:34:47;;;;;;;13.55;7.03;;;19.70;97.60;;;;;;5019382;28;20030;-70
2023/06/14 06:37:13;;;;;;;7.32;6.55;;;19.80;98.40;;;;;;5009249;28;20026;-71
2023/06/14 06:39:39;;;;;;;11.52;6.20;;;19.80;98.60;;;;;;5021400;28;20022;-71
2023/06/14 06:42:06;;;;;;;11.50;6.18;;;20.00;98.20;;;;;;5022262;28;20417;-71
2023/06/14 06:44:32;;;;;;;12.40;6.10;;;20.10;98.10;;;;;;5024040;28;20033;-71
2023/06/14 06:46:58;;;;;;;12.88;6.05;;;20.20;97.80;;;;;;5022762;28;20579;-71
2023/06/14 06:49:24;;;;;;;13.55;7.03;;;20.40;96.90;;;;;;5025557;28;20053;-71
2023/06/14 06:52:06;;;;;;;12.70;5.80;;;20.50;97.20;;;;;;5025320;28;20347;-71
2023/06/14 06:54:33;;;;;;;36.67;8.20;;;20.60;96.80;;;;;;5023882;28;20076;-71
2023/06/14 06:56:59;;;;;;;10.50;6.18;;;20.70;97.20;;;;;;5028299;28;20025;-71
2023/06/14 06:59:25;;;;;;;11.13;7.15;;;20.90;96.70;;;;;;5025659;28;20057;-71
2023/06/14 07:01:51;;;;;;;12.52;6.80;;;20.90;96.60;;;;;;5031700;28;20096;-71
2023/06/14 07:04:17;;;;;;;9.60;7.03;;;21.10;95.90;;;;;;5026863;28;20473;-71
2023/06/14 07:06:43;;;;;;;10.43;6.05;;;21.20;95.60;;;;;;5030874;28;20396;-71
2023/06/14 07:09:12;;;;;;;12.32;5.85;;;21.40;96.40;;;;;;5026793;28;20093;-71
2023/06/14 07:11:42;;;;;;;8.40;5.60;;;21.60;95.90;;;;;;5025606;28;20101;-71
2023/06/14 07:14:08;;;;;;;9.95;6.47;;;21.70;94.30;;;;;;5030695;28;20018;-71
2023/06/14 07:16:33;;;;;;;11.02;6.22;;;21.90;93.80;;;;;;5028530;28;20025;-71
2023/06/14 07:19:00;;;;;;;17.08;6.28;;;22.00;93.00;;;;;;5031453;28;20025;-69
2023/06/14 07:21:26;;;;;;;10.75;7.05;;;22.20;92.60;;;;;;5008440;28;20030;-69
2023/06/14 07:23:53;;;;;;;11.60;5.88;;;22.20;91.50;;;;;;5023850;28;20063;-70
2023/06/14 07:26:19;;;;;;;12.15;5.82;;;22.10;92.40;;;;;;5027628;28;20038;-69
2023/06/14 07:28:47;;;;;;;13.55;6.13;;;22.40;92.40;;;;;;5030008;28;20539;-69
2023/06/14 07:31:13;;;;;;;15.07;8.88;;;22.50;91.80;;;;;;5031441;28;20119;-70
2023/06/14 07:33:40;;;;;;;16.77;10.27;;;22.70;90.60;;;;;;5025610;28;20034;-70
2023/06/14 07:36:05;;;;;;;10.43;5.45;;;22.80;90.60;;;;;;5027648;28;20041;-69
2023/06/14 07:38:31;;;;;;;10.95;5.20;;;22.90;91.00;;;;;;5020486;28;20072;-71
2023/06/14 07:40:57;;;;;;;8.35;5.00;;;23.00;90.60;;;;;;5029173;28;20528;-70
2023/06/14 07:43:22;;;;;;;8.23;4.78;;;23.20;91.10;;;;;;5026737;28;20498;-71
2023/06/14 07:45:48;;;;;;;10.80;5.13;;;23.20;89.10;;;;;;5032270;28;20037;-69
2023/06/14 07:48:14;;;;;;;9.15;5.25;;;23.40;90.10;;;;;;5024795;28;20022;-70
2023/06/14 07:50:39;;;;;;;15.48;5.53;;;23.40;91.50;;;;;;5022148;28;20076;-69
2023/06/14 07:53:05;;;;;;;16.45;5.88;;;23.60;90.10;;;;;;5023303;28;20084;-69
2023/06/14 07:55:32;;;;;;;11.05;5.75;;;23.60;88.60;;;;;;5023987;28;20478;-70
2023/06/14 07:57:58;;;;;;;16.63;5.97;;;23.90;88.20;;;;;;5024349;28;20018;-69
2023/06/14 08:00:24;;;;;;;8.52;5.25;;;24.00;89.90;;;;;;5027251;28;20033;-70
2023/06/14 08:02:51;;;;;;;15.43;4.78;;;24.20;86.80;;;;;;5023023;28;20064;-71
2023/06/14 08:05:17;;;;;;;11.15;5.07;;;24.20;85.80;;;;;;5019891;28;20058;-71
2023/06/14 08:07:43;;;;;;;8.60;5.07;;;24.30;83.10;;;;;;5027218;28;20069;-71
2023/06/14 08:10:09;;;;;;;21.17;6.00;;;24.40;87.50;;;;;;5012351;28;20018;-70
2023/06/14 08:12:35;;;;;;;11.93;4.85;;;24.40;84.50;;;;;;5030111;28;20044;-70
2023/06/14 08:15:01;;;;;;;10.32;4.50;;;24.50;82.90;;;;;;5029185;28;20020;-70
2023/06/14 08:17:26;;;;;;;12.02;5.28;;;24.60;81.80;;;;;;5020035;28;20401;-69
2023/06/14 08:19:57;;;;;;;7.75;4.43;;;24.80;84.30;;;;;;5025226;28;20021;-70
2023/06/14 08:22:24;;;;;;;11.57;4.60;;;24.70;84.60;;;;;;5019546;28;20405;-70
2023/06/14 08:24:50;;;;;;;9.82;4.95;;;24.80;84.60;;;;;;5020624;28;20060;-69
2023/06/14 08:27:16;;;;;;;9.43;4.70;;;24.90;80.80;;;;;;5025463;28;20041;-69
2023/06/14 08:29:43;;;;;;;8.00;4.47;;;25.10;80.70;;;;;;5026800;28;20049;-69
2023/06/14 08:32:09;;;;;;;6.68;4.30;;;25.20;78.80;;;;;;5018883;28;20030;-68
2023/06/14 08:34:36;;;;;;;7.18;4.57;;;25.30;78.80;;;;;;5029159;28;20095;-69
2023/06/14 08:37:06;;;;;;;7.50;4.45;;;25.40;79.10;;;;;;5017570;28;20030;-68
2023/06/14 08:39:32;;;;;;;7.82;4.25;;;25.40;80.50;;;;;;5017878;28;20052;-68
2023/06/14 08:41:58;;;;;;;10.30;4.50;;;25.50;80.30;;;;;;5029950;28;20108;-68
2023/06/14 08:44:24;;;;;;;10.18;4.07;;;25.60;77.00;;;;;;5025240;28;20022;-70
2023/06/14 08:46:53;;;;;;;9.07;4.38;;;25.80;80.20;;;;;;5025080;28;20025;-70
2023/06/14 08:49:21;;;;;;;8.60;5.10;;;25.90;78.60;;;;;;5022069;28;20079;-71
2023/06/14 08:51:51;;;;;;;7.85;4.13;;;25.90;76.90;;;;;;5021740;28;20030;-70
2023/06/14 08:54:20;;;;;;;6.00;3.70;;;26.20;78.90;;;;;;5022694;28;20153;-70
2023/06/14 08:56:48;;;;;;;5.82;4.15;;;26.10;79.60;;;;;;5020978;28;20060;-70
2023/06/14 08:59:15;;;;;;;6.70;3.95;;;26.20;77.80;;;;;;5020816;28;20032;-70
2023/06/14 09:01:40;;;;;;;10.50;4.30;;;26.30;77.60;;;;;;5013433;28;20425;-70
2023/06/14 09:04:06;;;;;;;6.60;4.10;;;26.40;75.10;;;;;;5023218;28;20477;-70
2023/06/14 09:06:32;;;;;;;5.97;3.33;;;26.50;76.60;;;;;;5018604;28;20033;-70
2023/06/14 09:08:58;;;;;;;7.15;3.63;;;26.70;76.70;;;;;;4997388;28;20145;-69
2023/06/14 09:11:25;;;;;;;8.68;3.50;;;26.70;73.90;;;;;;5020531;28;20472;-70
2023/06/14 09:13:51;;;;;;;4.68;3.45;;;26.80;74.10;;;;;;5022778;28;20479;-69
2023/06/14 09:16:17;;;;;;;7.70;3.83;;;27.10;75.10;;;;;;5005886;28;20075;-70
2023/06/14 09:18:47;;;;;;;6.15;4.15;;;27.10;78.00;;;;;;5023063;28;20025;-71
2023/06/14 09:21:14;;;;;;;9.43;3.38;;;27.10;77.20;;;;;;5021624;28;20032;-70
2023/06/14 09:23:42;;;;;;;6.90;3.60;;;27.30;71.80;;;;;;5022231;28;20041;-70
2023/06/14 09:26:12;;;;;;;7.63;3.05;;;27.40;73.70;;;;;;5020787;28;20363;-69
2023/06/14 09:28:45;;;;;;;5.53;3.28;;;27.30;74.20;;;;;;5021762;28;20482;-69
2023/06/14 09:31:19;;;;;;;7.05;2.90;;;27.60;76.10;;;;;;5023619;28;20037;-70
2023/06/14 09:33:48;;;;;;;7.68;3.78;;;27.60;72.00;;;;;;5023607;28;20124;-70
2023/06/14 09:36:17;;;;;;;5.70;3.92;;;27.60;68.60;;;;;;5005880;28;20033;-70
2023/06/14 09:39:04;;;;;;;5.10;2.80;;;27.70;69.30;;;;;;5006503;28;20029;-70
2023/06/14 09:41:33;;;;;;;3.55;2.30;;;27.90;68.90;;;;;;5021793;28;20025;-70
2023/06/14 09:44:02;;;;;;;4.28;2.75;;;27.80;66.40;;;;;;5004992;28;20469;-70
2023/06/14 09:46:29;;;;;;;4.20;2.40;;;27.80;64.30;;;;;;5021656;28;20038;-70
2023/06/14 09:48:58;;;;;;;4.30;3.28;;;28.00;64.60;;;;;;5021683;28;20029;-71
2023/06/14 09:51:26;;;;;;;3.40;2.45;;;28.10;66.70;;;;;;5023442;28;20017;-71
2023/06/14 09:53:52;;;;;;;2.40;2.20;;;28.20;64.60;;;;;;5023932;28;20673;-71
2023/06/14 09:56:27;;;;;;;6.70;2.10;;;28.30;65.30;;;;;;5023208;28;20049;-71
2023/06/14 09:58:56;;;;;;;3.53;1.90;;;28.30;61.90;;;;;;5020215;28;20033;-70
2023/06/14 10:01:24;;;;;;;3.42;1.95;;;28.50;67.00;;;;;;5022732;28;20022;-71
2023/06/14 10:03:57;;;;;;;2.90;2.25;;;28.40;65.40;;;;;;5023130;28;20417;-70
2023/06/14 10:06:24;;;;;;;5.53;2.15;;;28.40;63.80;;;;;;5023372;28;20056;-71
2023/06/14 10:08:54;;;;;;;4.50;1.77;;;28.50;60.40;;;;;;5021744;28;20478;-70
2023/06/14 10:11:21;;;;;;;2.70;1.50;;;28.40;60.20;;;;;;5023050;28;20030;-70
2023/06/14 10:13:47;;;;;;;3.35;2.10;;;28.40;60.10;;;;;;5023473;28;20104;-70
2023/06/14 10:16:20;;;;;;;2.63;1.73;;;28.30;62.70;;;;;;5022814;28;20022;-70
2023/06/14 10:19:08;;;;;;;3.78;1.65;;;28.50;61.70;;;;;;5021265;28;20438;-70
2023/06/14 10:21:42;;;;;;;3.65;1.90;;;28.50;62.20;;;;;;5022820;28;20037;-70
2023/06/14 10:24:10;;;;;;;5.53;1.75;;;28.60;61.70;;;;;;5020641;28;20117;-70
2023/06/14 10:26:57;;;;;;;2.10;1.90;;;28.60;59.90;;;;;;5024490;28;20045;-70
2023/06/14 10:29:23;;;;;;;4.38;1.75;;;28.70;61.30;;;;;;5008726;28;20053;-70
2023/06/14 10:31:50;;;;;;;2.67;1.60;;;28.90;62.30;;;;;;5025686;28;21037;-70
2023/06/14 10:34:42;;;;;;;4.13;1.65;;;29.10;63.30;;;;;;5023717;28;20416;-70
2023/06/14 10:37:13;;;;;;;1.98;1.58;;;28.90;63.10;;;;;;5020022;28;20049;-71
2023/06/14 10:39:46;;;;;;;4.43;1.67;;;28.70;57.50;;;;;;5011781;28;20021;-70
2023/06/14 10:42:13;;;;;;;3.70;1.60;;;28.90;60.90;;;;;;5025492;28;20109;-70
2023/06/14 10:44:42;;;;;;;5.63;1.90;;;28.80;59.80;;;;;;5024834;28;20056;-70
2023/06/14 10:47:19;;;;;;;2.65;1.83;;;28.80;58.70;;;;;;5025576;28;20051;-70
2023/06/14 10:49:50;;;;;;;7.47;2.00;;;28.90;58.80;;;;;;5024908;28;20017;-70
2023/06/14 10:52:16;;;;;;;5.95;1.80;;;28.90;59.00;;;;;;5025419;28;20029;-70
2023/06/14 10:55:01;;;;;;;6.88;1.63;;;28.80;59.90;;;;;;5024963;28;20029;-70
2023/06/14 10:57:27;;;;;;;4.32;1.95;;;29.20;59.50;;;;;;5024735;28;20076;-70
2023/06/14 10:59:54;;;;;;;2.13;1.83;;;29.10;58.60;;;;;;5025627;28;20465;-71
2023/06/14 11:02:19;;;;;;;3.17;1.48;;;29.20;60.50;;;;;;5026485;28;20021;-70
2023/06/14 11:04:50;;;;;;;4.43;2.40;;;29.40;59.60;;;;;;5024160;28;20026;-70
2023/06/14 11:07:27;;;;;;;2.70;2.20;;;29.50;59.60;;;;;;5024704;28;20417;-70
2023/06/14 11:10:30;;;;;;;3.33;1.83;;;29.80;59.30;;;;;;5024756;28;20088;-70
2023/06/14 11:12:56;;;;;;;1.90;1.70;;;29.80;58.50;;;;;;5010034;28;20037;-70
2023/06/14 11:15:31;;;;;;;1.88;1.77;;;29.80;59.40;;;;;;5010180;28;20021;-70
2023/06/14 11:18:00;;;;;;;6.65;1.80;;;29.70;60.50;;;;;;5025437;28;20119;-71
2023/06/14 11:20:26;;;;;;;1.88;1.73;;;29.60;60.20;;;;;;5024410;28;20037;-70
2023/06/14 11:22:53;;;;;;;5.57;1.70;;;29.60;61.50;;;;;;5023241;28;20034;-70
2023/06/14 11:25:20;;;;;;;3.10;2.00;;;29.80;60.00;;;;;;5022395;28;20556;-70
2023/06/14 11:27:46;;;;;;;7.97;2.85;;;29.70;61.20;;;;;;5025412;28;20535;-70
2023/06/14 11:30:13;;;;;;;2.70;2.17;;;29.60;59.80;;;;;;5025269;28;20024;-70
2023/06/14 11:32:39;;;;;;;2.75;1.73;;;29.80;59.50;;;;;;5024910;28;20041;-70
2023/06/14 11:35:06;;;;;;;7.10;2.10;;;29.70;61.00;;;;;;5024725;28;20024;-70
2023/06/14 11:37:34;;;;;;;2.95;1.90;;;29.70;61.60;;;;;;5023471;28;20029;-71
2023/06/14 11:40:02;;;;;;;2.85;2.10;;;29.80;60.60;;;;;;5023450;28;20033;-70
2023/06/14 11:42:28;;;;;;;3.45;2.03;;;29.90;61.80;;;;;;5025508;28;20014;-70
2023/06/14 11:44:56;;;;;;;5.05;1.92;;;30.00;61.60;;;;;;5025749;28;20041;-70
2023/06/14 11:47:22;;;;;;;2.58;1.90;;;30.00;59.50;;;;;;5024530;28;20116;-70
2023/06/14 11:49:48;;;;;;;5.57;2.20;;;29.90;60.50;;;;;;5024946;28;20120;-71
2023/06/14 11:52:14;;;;;;;2.30;2.08;;;29.90;59.10;;;;;;5021612;28;20022;-70
2023/06/14 11:54:40;;;;;;;2.92;1.70;;;29.90;61.30;;;;;;5022279;28;20029;-71
2023/06/14 11:57:10;;;;;;;3.20;2.15;;;30.20;59.40;;;;;;5024644;28;20033;-70
2023/06/14 11:59:44;;;;;;;4.50;2.40;;;30.30;59.30;;;;;;5008623;28;20096;-71
2023/06/14 12:02:13;;;;;;;4.18;1.70;;;30.10;62.30;;;;;;5026361;28;20108;-71
2023/06/14 12:04:41;;;;;;;4.63;2.30;;;30.00;63.00;;;;;;5022890;28;20060;-71
2023/06/14 12:07:17;;;;;;;3.35;2.05;;;30.10;60.60;;;;;;5023887;28;20489;-71
2023/06/14 12:10:07;;;;;;;1.50;1.40;;;29.90;60.40;;;;;;5023194;28;20031;-70
2023/06/14 12:12:36;;;;;;;5.07;1.60;;;29.80;62.80;;;;;;4996128;28;20041;-70
2023/06/14 12:15:04;;;;;;;2.17;1.60;;;29.80;62.70;;;;;;5025134;28;20034;-71
2023/06/14 12:17:36;;;;;;;5.07;2.08;;;30.10;61.80;;;;;;5008915;28;20051;-70
2023/06/14 12:20:21;;;;;;;5.00;2.00;;;30.10;61.50;;;;;;5024149;28;20053;-71
2023/06/14 12:22:56;;;;;;;4.82;1.85;;;30.00;61.20;;;;;;5021704;28;20023;-70
2023/06/14 12:25:35;;;;;;;4.68;2.03;;;30.00;62.00;;;;;;5022787;28;20045;-70
2023/06/14 12:28:08;;;;;;;3.40;1.52;;;30.10;61.40;;;;;;5010274;28;20033;-71
2023/06/14 12:30:37;;;;;;;3.72;1.92;;;30.20;60.70;;;;;;5020980;28;20021;-70
2023/06/14 12:33:04;;;;;;;3.70;1.65;;;30.20;59.70;;;;;;5021771;28;20026;-70
2023/06/14 12:35:29;;;;;;;3.85;1.70;;;30.30;62.10;;;;;;5022390;28;20025;-70
2023/06/14 12:37:56;;;;;;;3.80;1.80;;;30.30;61.70;;;;;;5024618;28;20509;-69
2023/06/14 12:40:22;;;;;;;3.88;1.90;;;30.10;60.10;;;;;;5014815;28;20632;-70
2023/06/14 12:42:47;;;;;;;5.35;1.95;;;30.00;62.50;;;;;;5022394;28;20025;-69
2023/06/14 12:45:13;;;;;;;3.53;2.10;;;29.90;60.90;;;;;;5021372;28;20041;-69